createdAt,value
2018-12-16T00:00:41.831Z,84.34
2018-12-16T00:03:10.104Z,84.58
2018-12-16T00:05:38.324Z,84.73
2018-12-16T00:08:06.478Z,84.69
2018-12-16T00:10:34.701Z,84.92
2018-12-16T00:13:02.885Z,85.18
2018-12-16T00:15:31.198Z,84.91
2018-12-16T00:17:59.371Z,85.25
2018-12-16T00:20:27.670Z,85.44
2018-12-16T00:22:55.885Z,85.39
2018-12-16T00:25:24.232Z,85.17
2018-12-16T00:27:52.410Z,85.25
2018-12-16T00:30:20.812Z,85.39
2018-12-16T00:32:48.998Z,85.46
2018-12-16T00:35:17.158Z,85.35
2018-12-16T00:37:45.397Z,84.94
2018-12-16T00:40:13.834Z,84.81
2018-12-16T00:42:42.009Z,84.90
2018-12-16T00:45:10.355Z,85.04
2018-12-16T00:47:38.575Z,85.12
2018-12-16T00:50:07.067Z,85.12
2018-12-16T00:52:36.586Z,85.09
2018-12-16T00:55:05.370Z,84.65
2018-12-16T00:57:33.683Z,84.92
2018-12-16T01:00:01.828Z,85.25
2018-12-16T01:02:35.274Z,85.23
2018-12-16T01:05:03.675Z,85.32
2018-12-16T01:07:31.997Z,85.44
2018-12-16T01:10:00.260Z,85.68
2018-12-16T01:12:28.541Z,85.54
2018-12-16T01:14:56.753Z,85.86
2018-12-16T01:17:24.977Z,85.90
2018-12-16T01:19:53.287Z,85.86
2018-12-16T01:22:21.623Z,86.11
2018-12-16T01:24:49.911Z,86.49
2018-12-16T01:27:18.830Z,86.11
2018-12-16T01:29:47.157Z,86.32
2018-12-16T01:32:15.287Z,86.62
2018-12-16T01:34:43.458Z,86.67
2018-12-16T01:37:11.704Z,86.24
2018-12-16T01:39:39.917Z,86.76
2018-12-16T01:42:08.213Z,86.27
2018-12-16T01:44:36.471Z,86.20
2018-12-16T01:47:04.791Z,86.75
2018-12-16T01:49:33.035Z,86.24
2018-12-16T01:52:01.388Z,86.20
2018-12-16T01:54:29.666Z,86.36
2018-12-16T01:56:57.942Z,86.21
2018-12-16T01:59:26.111Z,86.12
2018-12-16T02:01:55.220Z,85.92
2018-12-16T02:04:24.485Z,86.17
2018-12-16T02:06:52.869Z,85.79
2018-12-16T02:09:21.140Z,86.32
2018-12-16T02:11:49.358Z,85.84
2018-12-16T02:14:17.582Z,86.21
2018-12-16T02:16:45.805Z,86.01
2018-12-16T02:19:14.120Z,86.07
2018-12-16T02:21:42.279Z,86.23
2018-12-16T02:24:10.415Z,85.27
2018-12-16T02:26:38.655Z,85.40
2018-12-16T02:29:06.973Z,85.33
2018-12-16T02:31:35.233Z,85.32
2018-12-16T02:34:03.433Z,85.37
2018-12-16T02:36:31.662Z,85.37
2018-12-16T02:38:59.887Z,85.38
2018-12-16T02:41:28.187Z,85.24
2018-12-16T02:43:56.556Z,85.32
2018-12-16T02:46:24.697Z,85.07
2018-12-16T02:48:53.029Z,85.13
2018-12-16T02:51:21.266Z,85.07
2018-12-16T02:53:49.526Z,85.56
2018-12-16T02:56:17.707Z,85.41
2018-12-16T02:58:45.996Z,85.09
2018-12-16T03:01:14.360Z,85.04
2018-12-16T03:03:42.752Z,85.36
2018-12-16T03:06:10.939Z,85.25
2018-12-16T03:08:39.183Z,85.30
2018-12-16T03:11:07.419Z,85.30
2018-12-16T03:13:35.663Z,85.20
2018-12-16T03:16:03.872Z,85.09
2018-12-16T03:18:32.013Z,85.37
2018-12-16T03:21:00.211Z,85.15
2018-12-16T03:23:28.541Z,85.51
2018-12-16T03:25:56.825Z,85.59
2018-12-16T03:28:24.982Z,85.63
2018-12-16T03:30:53.207Z,85.59
2018-12-16T03:33:21.346Z,85.55
2018-12-16T03:35:49.505Z,85.71
2018-12-16T03:38:17.754Z,85.34
2018-12-16T03:40:46.043Z,85.23
2018-12-16T03:43:14.226Z,85.51
2018-12-16T03:45:42.383Z,85.67
2018-12-16T03:48:10.536Z,85.40
2018-12-16T03:50:38.769Z,85.40
2018-12-16T03:53:06.945Z,85.64
2018-12-16T03:55:35.121Z,85.40
2018-12-16T03:58:03.464Z,85.81
2018-12-16T04:00:31.712Z,85.52
2018-12-16T04:02:59.868Z,85.25
2018-12-16T04:05:28.133Z,85.12
2018-12-16T04:07:56.321Z,84.93
2018-12-16T04:10:24.494Z,84.66
2018-12-16T04:12:52.757Z,84.62
2018-12-16T04:15:20.989Z,84.58
2018-12-16T04:17:49.223Z,84.31
2018-12-16T04:20:17.822Z,84.46
2018-12-16T04:22:46.013Z,83.88
2018-12-16T04:25:14.196Z,83.66
2018-12-16T04:27:42.375Z,83.82
2018-12-16T04:30:10.660Z,83.58
2018-12-16T04:32:38.799Z,82.97
2018-12-16T04:35:07.112Z,83.08
2018-12-16T04:37:35.539Z,82.72
2018-12-16T04:40:04.144Z,83.45
2018-12-16T04:42:32.316Z,83.46
2018-12-16T04:45:00.462Z,83.42
2018-12-16T04:47:28.659Z,83.36
2018-12-16T04:49:56.827Z,83.40
2018-12-16T04:52:24.999Z,83.39
2018-12-16T04:54:53.149Z,83.38
2018-12-16T04:57:21.380Z,83.35
2018-12-16T04:59:49.578Z,83.35
2018-12-16T05:02:17.922Z,83.40
2018-12-16T05:04:46.228Z,83.66
2018-12-16T05:07:14.472Z,83.37
2018-12-16T05:09:42.641Z,83.29
2018-12-16T05:12:10.943Z,83.59
2018-12-16T05:14:39.180Z,82.82
2018-12-16T05:17:07.425Z,82.89
2018-12-16T05:19:35.624Z,82.74
2018-12-16T05:22:03.864Z,83.10
2018-12-16T05:24:32.056Z,82.62
2018-12-16T05:27:00.202Z,82.62
2018-12-16T05:29:28.542Z,82.89
2018-12-16T05:31:56.712Z,82.85
2018-12-16T05:34:24.882Z,82.50
2018-12-16T05:36:53.056Z,82.59
2018-12-16T05:39:21.308Z,82.08
2018-12-16T05:41:49.504Z,82.40
2018-12-16T05:44:17.680Z,82.20
2018-12-16T05:46:45.979Z,82.36
2018-12-16T05:49:14.232Z,81.95
2018-12-16T05:51:42.413Z,82.13
2018-12-16T05:54:10.654Z,81.88
2018-12-16T05:56:38.779Z,81.81
2018-12-16T05:59:06.944Z,81.86
2018-12-16T06:01:35.124Z,82.24
2018-12-16T06:04:03.407Z,82.07
2018-12-16T06:06:31.622Z,82.38
2018-12-16T06:08:59.834Z,81.86
2018-12-16T06:11:28.161Z,82.03
2018-12-16T06:13:56.393Z,82.40
2018-12-16T06:16:24.546Z,82.68
2018-12-16T06:18:52.684Z,82.53
2018-12-16T06:21:20.897Z,82.54
2018-12-16T06:23:55.316Z,82.54
2018-12-16T06:26:19.513Z,82.22
2018-12-16T06:28:47.882Z,82.14
2018-12-16T06:31:16.108Z,82.26
2018-12-16T06:33:44.282Z,82.16
2018-12-16T06:36:12.444Z,82.33
2018-12-16T06:38:40.625Z,82.20
2018-12-16T06:41:08.816Z,82.69
2018-12-16T06:43:36.980Z,82.46
2018-12-16T06:46:05.225Z,81.97
2018-12-16T06:48:33.416Z,81.62
2018-12-16T06:51:01.726Z,81.89
2018-12-16T06:53:29.940Z,81.77
2018-12-16T06:55:58.082Z,81.94
2018-12-16T06:58:26.358Z,81.93
2018-12-16T07:00:54.623Z,82.20
2018-12-16T07:03:22.776Z,82.01
2018-12-16T07:05:51.047Z,82.16
2018-12-16T07:08:19.190Z,81.98
2018-12-16T07:10:47.445Z,82.06
2018-12-16T07:13:15.686Z,82.56
2018-12-16T07:15:44.036Z,82.52
2018-12-16T07:18:12.310Z,82.16
2018-12-16T07:20:40.635Z,82.12
2018-12-16T07:23:08.862Z,81.76
2018-12-16T07:25:36.995Z,82.66
2018-12-16T07:28:05.471Z,82.53
2018-12-16T07:30:33.648Z,82.27
2018-12-16T07:33:01.900Z,82.43
2018-12-16T07:35:30.113Z,82.28
2018-12-16T07:37:58.268Z,82.48
2018-12-16T07:40:26.656Z,82.46
2018-12-16T07:42:55.183Z,82.37
2018-12-16T07:45:23.515Z,82.61
2018-12-16T07:47:51.871Z,82.18
2018-12-16T07:50:20.154Z,82.47
2018-12-16T07:52:48.465Z,82.63
2018-12-16T07:55:16.910Z,82.37
2018-12-16T07:57:45.130Z,82.65
2018-12-16T08:00:13.436Z,82.29
2018-12-16T08:02:41.644Z,82.41
2018-12-16T08:05:09.885Z,82.37
2018-12-16T08:07:38.136Z,82.98
2018-12-16T08:10:06.412Z,82.63
2018-12-16T08:12:35.076Z,82.54
2018-12-16T08:15:03.421Z,82.54
2018-12-16T08:17:31.581Z,82.55
2018-12-16T08:19:59.765Z,82.21
2018-12-16T08:22:27.959Z,82.16
2018-12-16T08:24:56.131Z,82.25
2018-12-16T08:27:24.325Z,81.28
2018-12-16T08:29:52.525Z,81.22
2018-12-16T08:32:20.676Z,81.11
2018-12-16T08:34:48.825Z,80.96
2018-12-16T08:37:17.052Z,80.87
2018-12-16T08:39:45.449Z,80.87
2018-12-16T08:42:13.592Z,80.08
2018-12-16T08:44:41.944Z,79.77
2018-12-16T08:47:10.210Z,79.79
2018-12-16T08:49:39.767Z,78.55
2018-12-16T08:52:07.923Z,77.68
2018-12-16T08:54:36.064Z,77.12
2018-12-16T08:57:04.367Z,76.83
2018-12-16T08:59:32.580Z,76.45
2018-12-16T09:02:00.812Z,76.42
2018-12-16T09:04:29.069Z,76.07
2018-12-16T09:06:57.390Z,76.35
2018-12-16T09:09:26.064Z,75.07
2018-12-16T09:11:55.109Z,75.43
2018-12-16T09:14:23.316Z,75.40
2018-12-16T09:16:51.562Z,75.33
2018-12-16T09:19:19.870Z,75.41
2018-12-16T09:21:48.068Z,75.20
2018-12-16T09:24:16.343Z,75.19
2018-12-16T09:26:44.543Z,74.16
2018-12-16T09:29:12.888Z,73.95
2018-12-16T09:31:41.180Z,74.73
2018-12-16T09:34:09.517Z,73.86
2018-12-16T09:36:37.766Z,73.26
2018-12-16T09:39:07.944Z,73.17
2018-12-16T09:41:36.137Z,73.58
2018-12-16T09:44:04.434Z,73.43
2018-12-16T09:46:32.719Z,73.37
2018-12-16T09:49:00.953Z,72.96
2018-12-16T09:51:29.227Z,73.42
2018-12-16T09:53:57.537Z,73.31
2018-12-16T09:56:26.517Z,72.52
2018-12-16T09:58:54.700Z,72.89
2018-12-16T10:01:23.148Z,72.69
2018-12-16T10:03:52.494Z,72.04
2018-12-16T10:06:20.685Z,72.04
2018-12-16T10:08:48.837Z,71.69
2018-12-16T10:11:17.170Z,72.00
2018-12-16T10:13:45.393Z,72.07
2018-12-16T10:16:13.793Z,72.12
2018-12-16T10:18:42.076Z,71.95
2018-12-16T10:21:10.389Z,72.08
2018-12-16T10:23:38.587Z,72.02
2018-12-16T10:26:06.853Z,71.50
2018-12-16T10:28:35.237Z,71.65
2018-12-16T10:31:03.517Z,71.46
2018-12-16T10:33:31.866Z,72.29
2018-12-16T10:36:00.149Z,71.61
2018-12-16T10:38:28.345Z,71.47
2018-12-16T10:40:56.589Z,71.71
2018-12-16T10:43:24.735Z,71.67
2018-12-16T10:45:52.976Z,71.26
2018-12-16T10:48:21.169Z,71.73
2018-12-16T10:50:49.467Z,70.67
2018-12-16T10:53:17.703Z,71.55
2018-12-16T10:55:46.015Z,71.74
2018-12-16T10:58:14.200Z,71.52
2018-12-16T11:00:47.843Z,71.29
2018-12-16T11:03:22.660Z,71.36
2018-12-16T11:08:43.903Z,71.53
2018-12-16T11:11:12.148Z,71.92
2018-12-16T11:13:40.336Z,72.04
2018-12-16T11:16:08.541Z,71.26
2018-12-16T11:18:43.363Z,71.50
2018-12-16T11:21:11.603Z,71.58
2018-12-16T11:23:39.796Z,71.41
2018-12-16T11:26:08.875Z,71.41
2018-12-16T11:28:37.153Z,71.61
2018-12-16T11:31:05.408Z,71.21
2018-12-16T11:33:33.609Z,72.18
2018-12-16T11:36:01.902Z,70.95
2018-12-16T11:38:30.077Z,71.70
2018-12-16T11:40:58.342Z,71.31
2018-12-16T11:43:26.500Z,71.55
2018-12-16T11:45:54.660Z,72.07
2018-12-16T11:48:22.948Z,71.90
2018-12-16T11:50:51.258Z,71.62
2018-12-16T11:53:19.514Z,71.32
2018-12-16T11:55:47.752Z,71.43
2018-12-16T11:58:15.892Z,71.48
2018-12-16T12:00:44.180Z,71.65
2018-12-16T12:03:12.430Z,71.47
2018-12-16T12:05:40.634Z,71.29
2018-12-16T12:08:08.871Z,71.56
2018-12-16T12:10:37.044Z,71.46
2018-12-16T12:13:06.663Z,71.22
2018-12-16T12:15:35.434Z,71.47
2018-12-16T12:20:25.981Z,71.78
2018-12-16T12:22:54.324Z,71.44
2018-12-16T12:25:22.826Z,71.01
2018-12-16T12:27:51.050Z,71.28
2018-12-16T12:30:19.295Z,71.21
2018-12-16T12:32:49.191Z,71.69
2018-12-16T12:35:17.686Z,71.66
2018-12-16T12:37:45.921Z,71.79
2018-12-16T12:40:14.286Z,71.82
2018-12-16T12:42:42.506Z,71.45
2018-12-16T12:45:10.817Z,71.56
2018-12-16T12:47:39.095Z,71.99
2018-12-16T12:50:08.325Z,71.30
2018-12-16T12:52:36.617Z,71.90
2018-12-16T12:55:05.244Z,71.90
2018-12-16T12:57:33.505Z,71.77
2018-12-16T13:00:01.760Z,71.94
2018-12-16T13:02:30.109Z,72.35
2018-12-16T13:04:58.265Z,72.48
2018-12-16T13:07:26.469Z,71.29
2018-12-16T13:09:54.679Z,72.10
2018-12-16T13:12:22.999Z,72.39
2018-12-16T13:14:51.157Z,71.86
2018-12-16T13:17:19.465Z,72.05
2018-12-16T13:19:47.748Z,72.03
2018-12-16T13:22:17.990Z,71.96
2018-12-16T13:24:57.478Z,72.29
2018-12-16T13:27:25.613Z,71.76
2018-12-16T13:29:53.955Z,72.29
2018-12-16T13:32:23.284Z,71.92
2018-12-16T13:34:53.167Z,72.26
2018-12-16T13:37:21.772Z,72.17
2018-12-16T13:39:51.486Z,72.44
2018-12-16T13:42:19.889Z,72.25
2018-12-16T13:44:48.125Z,72.42
2018-12-16T13:47:16.367Z,72.54
2018-12-16T13:49:44.546Z,72.08
2018-12-16T13:52:12.781Z,72.73
2018-12-16T13:54:40.937Z,72.48
2018-12-16T13:57:09.146Z,72.38
2018-12-16T13:59:37.324Z,71.98
2018-12-16T14:02:05.601Z,72.75
2018-12-16T14:04:33.811Z,72.60
2018-12-16T14:07:09.241Z,72.46
2018-12-16T14:09:39.146Z,72.44
2018-12-16T14:12:18.928Z,72.53
2018-12-16T14:14:47.370Z,72.67
2018-12-16T14:17:24.800Z,72.42
2018-12-16T14:19:53.051Z,73.25
2018-12-16T14:22:22.116Z,72.95
2018-12-16T14:24:50.377Z,72.85
2018-12-16T14:27:18.700Z,72.79
2018-12-16T14:29:47.633Z,73.21
2018-12-16T15:29:41.171Z,78.04
2018-12-16T15:32:09.506Z,77.91
2018-12-16T15:34:37.723Z,78.40
2018-12-16T15:37:06.017Z,79.43
2018-12-16T15:39:36.289Z,78.79
2018-12-16T15:42:04.654Z,78.88
2018-12-16T15:44:32.975Z,79.31
2018-12-16T15:47:02.569Z,79.21
2018-12-16T15:49:30.978Z,79.38
2018-12-16T15:52:00.591Z,79.34
2018-12-16T15:54:28.844Z,79.38
2018-12-16T15:56:57.369Z,79.46
2018-12-16T15:59:25.601Z,79.38
2018-12-16T16:01:53.878Z,79.11
2018-12-16T16:04:42.252Z,79.02
2018-12-16T16:07:10.720Z,79.33
2018-12-16T16:12:35.697Z,79.97
2018-12-16T16:15:04.388Z,79.43
2018-12-16T16:17:32.742Z,79.66
2018-12-16T16:20:03.080Z,78.94
2018-12-16T16:22:36.941Z,80.07
2018-12-16T16:25:06.775Z,79.98
2018-12-16T16:27:35.054Z,79.71
2018-12-16T16:30:03.939Z,79.74
2018-12-16T16:32:32.221Z,80.22
2018-12-16T16:35:02.384Z,80.26
2018-12-16T16:37:30.605Z,80.68
2018-12-16T16:39:59.001Z,80.82
2018-12-16T16:42:28.780Z,81.17
2018-12-16T16:44:57.964Z,81.32
2018-12-16T16:47:26.543Z,80.51
2018-12-16T16:49:56.147Z,80.06
2018-12-16T16:52:26.859Z,80.70
2018-12-16T16:54:55.782Z,80.47
2018-12-16T16:57:24.115Z,81.23
2018-12-16T16:59:53.402Z,80.76
2018-12-16T17:02:21.659Z,80.79
2018-12-16T17:04:50.031Z,81.32
2018-12-16T17:07:18.246Z,81.94
2018-12-16T17:09:46.855Z,81.15
2018-12-16T17:12:15.994Z,81.38
2018-12-16T17:14:44.825Z,81.95
2018-12-16T17:17:14.083Z,81.83
2018-12-16T17:19:42.765Z,81.68
2018-12-16T17:22:11.880Z,81.71
2018-12-16T17:24:40.563Z,82.17
2018-12-16T17:27:09.143Z,82.24
2018-12-16T17:29:51.098Z,82.02
2018-12-16T17:32:22.236Z,82.13
2018-12-16T17:37:58.159Z,81.34
2018-12-16T17:40:43.486Z,81.44
2018-12-16T17:43:11.821Z,81.49
2018-12-16T17:45:41.320Z,81.19
2018-12-16T17:48:09.613Z,81.54
2018-12-16T17:50:37.839Z,82.07
2018-12-16T17:53:08.265Z,81.65
2018-12-16T17:55:36.969Z,81.62
2018-12-16T17:58:12.730Z,81.08
2018-12-16T18:00:44.788Z,81.59
2018-12-16T18:03:17.278Z,81.83
2018-12-16T18:05:46.363Z,81.75
2018-12-16T18:09:16.769Z,82.46
2018-12-16T18:11:49.064Z,82.33
2018-12-16T18:14:18.197Z,82.24
2018-12-16T18:16:46.580Z,82.98
2018-12-16T18:19:14.858Z,83.08
2018-12-16T18:21:43.200Z,83.25
2018-12-16T18:24:11.408Z,84.49
2018-12-16T18:26:44.062Z,84.33
2018-12-16T18:29:10.038Z,85.04
2018-12-16T18:31:38.636Z,85.02
2018-12-16T18:34:10.490Z,85.16
2018-12-16T18:36:39.128Z,85.56
2018-12-16T18:39:09.595Z,85.51
2018-12-16T18:41:38.098Z,86.42
2018-12-16T18:44:06.954Z,86.31
2018-12-16T18:46:35.570Z,86.54
2018-12-16T18:50:28.595Z,86.77
2018-12-16T18:52:57.107Z,87.11
2018-12-16T18:55:25.394Z,87.12
2018-12-16T18:57:53.606Z,87.04
2018-12-16T19:00:22.066Z,87.93
2018-12-16T19:02:51.752Z,87.77
2018-12-16T19:05:20.656Z,87.89
2018-12-16T19:07:48.984Z,88.46
2018-12-16T19:10:17.297Z,88.34
2018-12-16T19:12:46.674Z,88.22
2018-12-16T19:15:15.790Z,88.25
2018-12-16T19:17:49.077Z,89.29
2018-12-16T19:20:25.624Z,88.54
2018-12-16T19:22:58.414Z,88.22
2018-12-16T19:25:26.873Z,88.74
2018-12-16T19:27:55.093Z,88.51
2018-12-16T19:30:48.054Z,88.45
2018-12-16T19:33:23.252Z,88.24
2018-12-16T19:35:52.974Z,87.95
2018-12-16T19:38:29.879Z,87.50
2018-12-16T19:41:02.792Z,88.52
2018-12-16T19:43:31.850Z,88.57
2018-12-16T19:46:11.773Z,88.29
2018-12-16T19:48:40.276Z,88.17
2018-12-16T19:51:13.447Z,88.00
2018-12-16T19:53:43.280Z,88.04
2018-12-16T19:56:17.268Z,88.31
2018-12-16T19:58:48.235Z,88.14
2018-12-16T20:04:08.771Z,88.03
2018-12-16T20:06:46.672Z,88.34
2018-12-16T20:09:18.023Z,88.72
2018-12-16T20:11:49.411Z,88.67
2018-12-16T20:14:19.221Z,88.42
2018-12-16T20:16:47.453Z,88.58
2018-12-16T20:19:23.733Z,88.16
2018-12-16T20:21:52.327Z,88.99
2018-12-16T20:24:20.516Z,88.70
2018-12-16T20:26:52.280Z,89.09
2018-12-16T20:29:20.480Z,89.40
2018-12-16T20:31:49.330Z,89.28
2018-12-16T20:34:18.009Z,89.35
2018-12-16T20:36:46.463Z,89.20
2018-12-16T20:39:14.874Z,89.09
2018-12-16T20:41:43.230Z,89.38
2018-12-16T20:44:11.638Z,89.72
2018-12-16T20:46:39.918Z,89.45
2018-12-16T20:49:08.369Z,89.36
2018-12-16T20:51:36.702Z,89.80
2018-12-16T20:54:07.932Z,89.51
2018-12-16T20:56:36.526Z,89.84
2018-12-16T20:59:11.546Z,89.50
2018-12-16T21:01:44.601Z,89.97
2018-12-16T21:04:13.415Z,89.84
2018-12-16T21:06:45.724Z,90.05
2018-12-16T21:09:19.781Z,90.03
2018-12-16T21:11:53.505Z,89.76
2018-12-16T21:14:30.519Z,89.70
2018-12-16T21:17:09.492Z,89.26
2018-12-16T21:19:38.883Z,89.60
2018-12-16T21:22:11.247Z,89.24
2018-12-16T21:24:43.804Z,89.73
2018-12-16T21:27:15.459Z,90.02
2018-12-16T21:29:43.905Z,90.34
2018-12-16T21:32:13.482Z,89.94
2018-12-16T21:34:41.824Z,90.08
2018-12-16T21:37:10.116Z,89.82
2018-12-16T21:39:38.285Z,89.53
2018-12-16T21:42:06.587Z,89.30
2018-12-16T21:44:34.809Z,89.43
2018-12-16T21:47:03.098Z,90.02
2018-12-16T21:49:31.332Z,90.06
2018-12-16T21:53:24.193Z,89.97
2018-12-16T21:55:53.559Z,89.93
2018-12-16T21:58:24.210Z,90.49
2018-12-16T22:00:59.805Z,90.28
2018-12-16T22:03:32.101Z,89.95
2018-12-16T22:06:07.914Z,89.80
2018-12-16T22:08:36.208Z,90.36
2018-12-16T22:11:05.579Z,90.06
2018-12-16T22:13:34.129Z,89.89
2018-12-16T22:16:02.359Z,90.50
2018-12-16T22:18:30.652Z,90.35
2018-12-16T22:20:58.942Z,90.33
2018-12-16T22:23:27.173Z,90.59
2018-12-16T22:25:55.431Z,90.29
2018-12-16T22:28:24.013Z,91.04
2018-12-16T22:30:52.281Z,90.69
2018-12-16T22:33:20.496Z,90.22
2018-12-16T22:35:50.184Z,90.55
2018-12-16T22:38:20.483Z,90.91
2018-12-16T22:40:48.898Z,90.68
2018-12-16T22:43:17.433Z,90.22
2018-12-16T22:45:46.758Z,90.35
2018-12-16T22:48:15.430Z,90.47
2018-12-16T22:50:43.782Z,90.77
2018-12-16T22:53:11.957Z,91.11
2018-12-16T22:55:40.237Z,90.78
2018-12-16T22:58:08.532Z,91.09
2018-12-16T23:00:41.079Z,91.25
2018-12-16T23:03:09.937Z,91.12
2018-12-16T23:05:42.260Z,91.27
2018-12-16T23:08:12.681Z,91.18
2018-12-16T23:10:40.939Z,91.14
2018-12-16T23:13:13.385Z,91.11
2018-12-16T23:15:41.690Z,91.67
2018-12-16T23:18:09.928Z,91.64
2018-12-16T23:20:38.182Z,91.98
2018-12-16T23:23:06.473Z,91.89
2018-12-16T23:25:34.754Z,91.43
2018-12-16T23:28:04.153Z,91.44
2018-12-16T23:30:32.332Z,91.59
2018-12-16T23:33:00.591Z,91.85
2018-12-16T23:35:28.829Z,91.91
2018-12-16T23:37:57.017Z,91.82
2018-12-16T23:40:25.256Z,91.70
2018-12-16T23:42:53.551Z,91.97
2018-12-16T23:45:21.744Z,91.26
2018-12-16T23:47:50.123Z,91.64
2018-12-16T23:50:18.383Z,91.50
2018-12-16T23:52:46.620Z,91.57
2018-12-16T23:55:14.992Z,91.80
2018-12-16T23:57:43.245Z,91.90
